Time;durP1;ratioP1;P1;durP2;ratioP2;P2;SDS_P1;SDS_P2;PMS_P1;PMS_P2;Temp;Humidity;BMP_temperature;BMP_pressure;BME280_temperature;BME280_humidity;BME280_pressure;Samples;Min_cycle;Max_cycle;Signal;HPM_P1;HPM_P2
2022/04/13 00:02:04;;;;;;;16.63;9.02;;;10.60;70.60;;;;;;5150411;27;20080;-50
2022/04/13 00:04:29;;;;;;;12.40;7.80;;;10.70;70.50;;;;;;5149208;27;20075;-49
2022/04/13 00:06:55;;;;;;;14.75;7.93;;;10.60;71.20;;;;;;5150429;27;20182;-49
2022/04/13 00:09:20;;;;;;;16.98;9.00;;;10.60;70.20;;;;;;5150092;27;20467;-50
2022/04/13 00:11:46;;;;;;;15.48;8.55;;;10.60;71.60;;;;;;5150677;27;20030;-51
2022/04/13 00:14:12;;;;;;;15.05;8.48;;;10.60;70.80;;;;;;5150358;27;20023;-49
2022/04/13 00:16:38;;;;;;;13.77;8.50;;;10.60;71.00;;;;;;5150394;27;20507;-49
2022/04/13 00:19:03;;;;;;;18.85;9.27;;;10.60;70.80;;;;;;5150002;27;20021;-48
2022/04/13 00:21:29;;;;;;;14.68;8.38;;;10.60;72.10;;;;;;5139038;27;20071;-47
2022/04/13 00:23:56;;;;;;;14.40;8.77;;;10.50;71.50;;;;;;5143886;27;20075;-50
2022/04/13 00:26:22;;;;;;;15.95;9.40;;;10.50;71.40;;;;;;5150304;27;20019;-47
2022/04/13 00:28:48;;;;;;;16.05;9.45;;;10.50;72.00;;;;;;5149521;27;20101;-49
2022/04/13 00:31:13;;;;;;;15.02;9.05;;;10.50;71.50;;;;;;5150373;27;20023;-50
2022/04/13 00:33:39;;;;;;;16.00;8.68;;;10.50;71.40;;;;;;5131564;27;20551;-47
2022/04/13 00:36:04;;;;;;;20.77;10.30;;;10.50;72.10;;;;;;5149925;27;20026;-48
2022/04/13 00:38:30;;;;;;;14.82;9.13;;;10.40;71.90;;;;;;5150095;27;20050;-46
2022/04/13 00:40:56;;;;;;;21.02;11.27;;;10.40;71.90;;;;;;5149224;27;20027;-48
2022/04/13 00:43:21;;;;;;;17.63;9.43;;;10.40;72.30;;;;;;5150048;27;20110;-48
2022/04/13 00:45:48;;;;;;;17.90;9.65;;;10.40;72.20;;;;;;5150112;27;20042;-48
2022/04/13 00:48:18;;;;;;;19.08;10.45;;;10.40;74.00;;;;;;5150271;27;20114;-49
2022/04/13 00:50:44;;;;;;;20.05;10.68;;;10.30;73.40;;;;;;5141347;27;20481;-46
2022/04/13 00:53:12;;;;;;;18.20;11.20;;;10.30;73.70;;;;;;5141678;27;20050;-48
2022/04/13 00:55:40;;;;;;;15.98;9.60;;;10.30;73.70;;;;;;5148682;27;20027;-47
2022/04/13 00:58:08;;;;;;;17.70;9.05;;;10.30;73.70;;;;;;5148777;27;20055;-47
2022/04/13 01:00:38;;;;;;;20.52;9.23;;;10.30;74.40;;;;;;5148491;27;20015;-49
2022/04/13 01:03:07;;;;;;;17.40;10.73;;;10.20;74.00;;;;;;5150048;27;20030;-47
2022/04/13 01:05:34;;;;;;;17.85;10.88;;;10.20;75.50;;;;;;5149092;27;20046;-50
2022/04/13 01:08:01;;;;;;;18.85;10.63;;;10.10;75.50;;;;;;5149882;27;20407;-50
2022/04/13 01:10:27;;;;;;;20.02;11.10;;;10.10;74.90;;;;;;5149092;27;20156;-48
2022/04/13 01:12:53;;;;;;;17.77;10.27;;;10.10;75.30;;;;;;5151103;27;20046;-47
2022/04/13 01:15:18;;;;;;;20.65;10.98;;;10.10;75.40;;;;;;5153848;27;20564;-47
2022/04/13 01:17:46;;;;;;;18.73;11.00;;;10.10;76.20;;;;;;5152394;27;20030;-50
2022/04/13 01:20:12;;;;;;;21.40;11.25;;;10.00;77.00;;;;;;5148068;27;20401;-49
2022/04/13 01:22:38;;;;;;;19.77;10.90;;;10.00;77.50;;;;;;5144199;27;20018;-48
2022/04/13 01:25:04;;;;;;;18.88;10.60;;;10.00;77.60;;;;;;5152112;27;20023;-47
2022/04/13 01:27:29;;;;;;;18.92;10.82;;;10.00;77.30;;;;;;5153735;27;20411;-47
2022/04/13 01:29:56;;;;;;;18.20;10.57;;;10.00;77.70;;;;;;5152792;27;20026;-48
2022/04/13 01:32:22;;;;;;;19.85;10.45;;;9.90;79.10;;;;;;5153849;27;20030;-46
2022/04/13 01:34:52;;;;;;;17.90;9.95;;;9.90;78.40;;;;;;5153433;27;20033;-49
2022/04/13 01:37:19;;;;;;;17.53;10.43;;;9.90;79.20;;;;;;5151840;27;20019;-48
2022/04/13 01:39:44;;;;;;;19.60;11.60;;;9.90;79.30;;;;;;5151533;27;20265;-48
2022/04/13 01:42:10;;;;;;;24.50;12.52;;;9.90;80.50;;;;;;5153479;27;20536;-47
2022/04/13 01:44:36;;;;;;;21.63;11.07;;;9.80;80.90;;;;;;5153268;27;20038;-47
2022/04/13 01:47:01;;;;;;;21.77;11.63;;;9.80;80.30;;;;;;5153192;27;20105;-48
2022/04/13 01:49:27;;;;;;;20.73;11.32;;;9.80;80.80;;;;;;5151296;27;20117;-49
2022/04/13 01:51:52;;;;;;;21.92;11.85;;;9.80;81.00;;;;;;5140753;27;20019;-50
2022/04/13 01:54:18;;;;;;;22.08;12.05;;;9.70;81.40;;;;;;5149721;27;20037;-49
2022/04/13 01:56:43;;;;;;;21.35;11.55;;;9.60;81.70;;;;;;5151637;27;20131;-48
2022/04/13 01:59:09;;;;;;;21.58;11.82;;;9.60;82.10;;;;;;5152388;27;20035;-50
2022/04/13 02:01:43;;;;;;;20.95;12.23;;;9.60;82.90;;;;;;5152894;27;20091;-49
2022/04/13 02:04:40;;;;;;;23.00;11.98;;;9.60;83.00;;;;;;5152901;27;20137;-48
2022/04/13 02:07:06;;;;;;;19.92;11.68;;;9.60;84.20;;;;;;5135796;27;20042;-48
2022/04/13 02:09:31;;;;;;;19.90;10.88;;;9.50;85.50;;;;;;5152123;27;20475;-49
2022/04/13 02:11:57;;;;;;;23.30;12.15;;;9.50;85.80;;;;;;5152976;27;20535;-50
2022/04/13 02:14:22;;;;;;;20.65;11.60;;;9.50;86.60;;;;;;5152748;27;20030;-47
2022/04/13 02:16:48;;;;;;;22.08;11.90;;;9.40;86.80;;;;;;5152619;27;20034;-46
2022/04/13 02:19:13;;;;;;;21.42;11.80;;;9.40;87.00;;;;;;5151801;27;20022;-48
2022/04/13 02:21:39;;;;;;;21.23;11.73;;;9.40;88.00;;;;;;5143202;27;20167;-48
2022/04/13 02:24:05;;;;;;;23.92;11.77;;;9.40;89.10;;;;;;5146475;27;20444;-48
2022/04/13 02:26:31;;;;;;;25.60;13.20;;;9.40;89.40;;;;;;5152392;27;20396;-48
2022/04/13 02:28:56;;;;;;;21.13;11.93;;;9.30;90.00;;;;;;5150723;27;20216;-49
2022/04/13 02:31:22;;;;;;;20.83;12.52;;;9.30;89.60;;;;;;5152762;27;20043;-46
2022/04/13 02:33:51;;;;;;;21.83;11.93;;;9.30;89.70;;;;;;5151258;27;20079;-47
2022/04/13 02:36:16;;;;;;;26.42;12.23;;;9.30;90.40;;;;;;5152537;27;20098;-48
2022/04/13 02:38:42;;;;;;;23.17;12.27;;;9.30;90.50;;;;;;5131193;27;20446;-47
2022/04/13 02:41:07;;;;;;;17.75;11.15;;;9.30;90.80;;;;;;5119146;27;20015;-50
2022/04/13 02:43:33;;;;;;;18.95;11.68;;;9.30;91.20;;;;;;5122018;27;20043;-50
2022/04/13 02:45:58;;;;;;;23.00;13.65;;;9.30;91.60;;;;;;5120042;27;20098;-49
2022/04/13 02:48:24;;;;;;;22.02;12.63;;;9.20;91.50;;;;;;5120783;27;20072;-48
2022/04/13 02:50:49;;;;;;;23.75;13.63;;;9.20;91.70;;;;;;5122849;27;20387;-47
2022/04/13 02:53:15;;;;;;;20.00;11.88;;;9.20;91.60;;;;;;5125671;27;20027;-49
2022/04/13 02:55:41;;;;;;;21.88;12.90;;;9.20;92.00;;;;;;5120833;27;20404;-48
2022/04/13 02:58:07;;;;;;;21.75;12.95;;;9.20;92.50;;;;;;5119366;27;20011;-50
2022/04/13 03:00:33;;;;;;;22.92;13.48;;;9.20;92.50;;;;;;5118779;27;20027;-51
2022/04/13 03:02:58;;;;;;;27.20;12.90;;;9.10;93.20;;;;;;5119192;27;20051;-48
2022/04/13 03:05:24;;;;;;;25.63;13.20;;;9.10;93.70;;;;;;5120413;27;20016;-47
2022/04/13 03:07:49;;;;;;;21.80;12.90;;;9.10;93.60;;;;;;5121537;27;20023;-49
2022/04/13 03:10:15;;;;;;;26.02;11.88;;;9.10;93.60;;;;;;5120541;27;20046;-48
2022/04/13 03:12:42;;;;;;;25.70;14.75;;;9.10;93.70;;;;;;5119407;27;20110;-60
2022/04/13 03:15:09;;;;;;;25.67;14.10;;;9.10;93.80;;;;;;5119757;27;20027;-60
2022/04/13 03:17:34;;;;;;;22.63;12.32;;;9.00;94.50;;;;;;5120663;27;20072;-59
2022/04/13 03:20:00;;;;;;;21.70;12.73;;;9.10;94.70;;;;;;5118519;27;20019;-59
2022/04/13 03:22:25;;;;;;;25.80;13.60;;;9.00;94.20;;;;;;5127762;27;20050;-48
2022/04/13 03:24:52;;;;;;;21.67;13.05;;;9.00;94.50;;;;;;5122852;27;20168;-48
2022/04/13 03:27:18;;;;;;;23.80;13.43;;;9.00;94.60;;;;;;5117462;27;20246;-48
2022/04/13 03:29:44;;;;;;;24.92;13.57;;;9.00;94.80;;;;;;5119478;27;20024;-48
2022/04/13 03:32:10;;;;;;;24.63;12.88;;;9.00;94.90;;;;;;5120164;27;20149;-60
2022/04/13 03:34:35;;;;;;;25.02;13.63;;;8.90;95.00;;;;;;5118546;27;20165;-60
2022/04/13 03:37:01;;;;;;;26.30;13.15;;;8.90;95.10;;;;;;5119986;27;20019;-60
2022/04/13 03:39:28;;;;;;;23.52;14.48;;;8.90;95.60;;;;;;5119234;27;20096;-60
2022/04/13 03:41:53;;;;;;;24.20;13.55;;;8.90;95.60;;;;;;5118805;27;20019;-47
2022/04/13 03:44:19;;;;;;;21.60;13.57;;;8.90;96.00;;;;;;5117356;27;20035;-49
2022/04/13 03:46:45;;;;;;;22.60;13.77;;;8.90;96.20;;;;;;5118494;27;20057;-48
2022/04/13 03:49:11;;;;;;;26.92;14.27;;;8.90;96.30;;;;;;5119599;27;20103;-49
2022/04/13 03:51:37;;;;;;;22.30;14.20;;;8.90;96.50;;;;;;5125472;27;20447;-50
2022/04/13 03:54:02;;;;;;;22.67;12.85;;;8.80;97.80;;;;;;5122452;27;20035;-60
2022/04/13 03:56:29;;;;;;;23.92;13.20;;;8.80;97.30;;;;;;5119318;27;20410;-49
2022/04/13 03:58:57;;;;;;;25.98;14.95;;;8.80;97.40;;;;;;5119732;27;20382;-49
2022/04/13 04:01:22;;;;;;;22.75;13.63;;;8.80;97.30;;;;;;5118623;27;20019;-52
2022/04/13 04:03:48;;;;;;;21.27;13.07;;;8.80;97.60;;;;;;5121190;27;20027;-48
2022/04/13 04:06:13;;;;;;;22.75;13.38;;;8.70;98.00;;;;;;5129609;27;20410;-49
2022/04/13 04:08:39;;;;;;;22.98;13.40;;;8.70;97.90;;;;;;5129364;27;20528;-50
2022/04/13 04:11:04;;;;;;;22.23;13.10;;;8.70;98.30;;;;;;5129822;27;20027;-49
2022/04/13 04:13:30;;;;;;;23.83;13.40;;;8.70;98.20;;;;;;5131600;27;20098;-47
2022/04/13 04:15:55;;;;;;;27.63;14.00;;;8.70;98.40;;;;;;5126645;27;20671;-47
2022/04/13 04:18:21;;;;;;;22.20;12.68;;;8.60;98.80;;;;;;5128856;27;20027;-51
2022/04/13 04:20:46;;;;;;;23.65;13.98;;;8.70;98.80;;;;;;5130896;27;20658;-52
2022/04/13 04:23:12;;;;;;;27.25;15.23;;;8.60;98.80;;;;;;5137417;27;20020;-49
2022/04/13 04:25:37;;;;;;;24.63;14.60;;;8.60;98.90;;;;;;5129271;27;20036;-50
2022/04/13 04:28:03;;;;;;;25.77;14.15;;;8.60;99.10;;;;;;5113652;27;20659;-50
2022/04/13 04:30:31;;;;;;;24.95;14.82;;;8.60;99.10;;;;;;5112924;28;20083;-50
2022/04/13 04:32:57;;;;;;;23.95;14.45;;;8.60;99.70;;;;;;5119116;27;20098;-49
2022/04/13 04:35:23;;;;;;;27.42;15.07;;;8.60;99.70;;;;;;5119078;28;20126;-50
2022/04/13 04:37:48;;;;;;;27.55;14.60;;;8.60;99.50;;;;;;5121321;28;20102;-50
2022/04/13 04:40:14;;;;;;;27.55;14.60;;;8.60;99.40;;;;;;5119544;28;20039;-52
2022/04/13 04:42:47;;;;;;;20.70;13.02;;;8.60;99.40;;;;;;5119866;28;20094;-51
2022/04/13 04:45:19;;;;;;;27.48;14.65;;;8.60;99.90;;;;;;5121244;27;20023;-49
2022/04/13 04:47:44;;;;;;;29.75;14.82;;;8.60;99.80;;;;;;5122283;27;20471;-52
2022/04/13 04:50:10;;;;;;;23.73;14.38;;;8.50;99.70;;;;;;5121285;27;20027;-49
2022/04/13 04:52:41;;;;;;;26.33;15.30;;;8.60;99.90;;;;;;5134566;27;20459;-48
2022/04/13 04:55:27;;;;;;;28.42;14.88;;;8.60;99.90;;;;;;5123209;27;20016;-47
2022/04/13 04:57:52;;;;;;;23.67;13.75;;;8.60;99.90;;;;;;5065247;28;20446;-50
2022/04/13 05:00:20;;;;;;;24.77;14.38;;;8.60;99.90;;;;;;5078068;28;20201;-50
2022/04/13 05:02:52;;;;;;;25.77;14.20;;;8.60;99.90;;;;;;5121770;27;20492;-49
2022/04/13 05:05:19;;;;;;;24.45;13.68;;;8.60;99.90;;;;;;5127981;27;20039;-49
2022/04/13 05:07:45;;;;;;;21.45;12.82;;;8.50;99.90;;;;;;5121923;27;20026;-51
2022/04/13 05:10:11;;;;;;;23.10;14.05;;;8.50;99.90;;;;;;5120400;27;20019;-49
2022/04/13 05:12:49;;;;;;;18.95;12.30;;;8.60;99.90;;;;;;5123445;27;20023;-49
2022/04/13 05:15:15;;;;;;;24.65;13.75;;;8.60;99.90;;;;;;5124056;27;20023;-50
2022/04/13 05:17:42;;;;;;;23.67;15.05;;;8.60;99.90;;;;;;5111302;28;20230;-49
2022/04/13 05:20:08;;;;;;;24.98;15.25;;;8.70;99.90;;;;;;5111766;28;20019;-50
2022/04/13 05:22:35;;;;;;;28.85;13.88;;;8.70;99.90;;;;;;5125695;27;20061;-50
2022/04/13 05:25:08;;;;;;;28.23;14.40;;;8.80;99.90;;;;;;5120427;27;20079;-48
2022/04/13 05:27:34;;;;;;;25.30;13.88;;;8.70;99.90;;;;;;5129971;27;20027;-48
2022/04/13 05:30:01;;;;;;;25.65;14.50;;;8.80;99.90;;;;;;5119522;27;20346;-50
2022/04/13 05:32:26;;;;;;;22.60;14.85;;;8.80;99.90;;;;;;5132627;27;20049;-49
2022/04/13 05:35:03;;;;;;;26.73;14.13;;;8.90;99.90;;;;;;5123969;27;20027;-50
2022/04/13 05:37:28;;;;;;;27.27;15.55;;;8.90;99.90;;;;;;5133160;27;20011;-49
2022/04/13 05:39:54;;;;;;;22.98;13.63;;;8.90;99.90;;;;;;5121189;27;20440;-49
2022/04/13 05:42:24;;;;;;;22.00;13.13;;;9.00;99.90;;;;;;5111534;27;20039;-50
2022/04/13 05:44:50;;;;;;;20.63;12.90;;;9.00;99.90;;;;;;5140374;27;20106;-51
2022/04/13 05:47:15;;;;;;;29.33;13.50;;;9.10;99.90;;;;;;5119983;27;20055;-50
2022/04/13 05:49:41;;;;;;;22.85;13.98;;;9.10;99.90;;;;;;5118169;27;20392;-51
2022/04/13 05:52:06;;;;;;;21.58;13.60;;;9.20;99.90;;;;;;5122911;27;20023;-52
2022/04/13 05:54:32;;;;;;;22.42;13.73;;;9.20;99.90;;;;;;5125563;27;20848;-51
2022/04/13 05:56:57;;;;;;;24.48;14.63;;;9.20;99.90;;;;;;5126765;27;20015;-49
2022/04/13 05:59:23;;;;;;;23.77;14.13;;;9.30;99.90;;;;;;5117886;27;20031;-48
2022/04/13 06:01:48;;;;;;;21.13;13.00;;;9.30;99.90;;;;;;5121621;27;20031;-51
2022/04/13 06:04:14;;;;;;;23.50;14.57;;;9.30;99.90;;;;;;5121210;27;20356;-50
2022/04/13 06:06:39;;;;;;;23.35;13.57;;;9.40;99.90;;;;;;5128211;27;20027;-51
2022/04/13 06:09:05;;;;;;;23.77;13.88;;;9.40;99.90;;;;;;5124935;27;20020;-50
2022/04/13 06:11:30;;;;;;;25.40;15.25;;;9.50;99.90;;;;;;5123404;27;20097;-51
2022/04/13 06:13:56;;;;;;;23.77;14.05;;;9.60;99.90;;;;;;5122459;27;20048;-51
2022/04/13 06:16:21;;;;;;;22.25;14.68;;;9.60;99.90;;;;;;5132358;27;20026;-52
2022/04/13 06:18:47;;;;;;;28.00;15.88;;;9.70;99.90;;;;;;5145827;27;20011;-49
2022/04/13 06:21:12;;;;;;;26.23;14.20;;;9.80;99.90;;;;;;5140724;27;20023;-49
2022/04/13 06:23:38;;;;;;;24.05;15.13;;;9.90;99.10;;;;;;5140037;27;20592;-50
2022/04/13 06:26:03;;;;;;;23.45;13.98;;;9.90;99.10;;;;;;5153999;27;20034;-49
2022/04/13 06:28:30;;;;;;;23.13;14.00;;;10.00;99.30;;;;;;5142732;27;20538;-49
2022/04/13 06:30:55;;;;;;;22.15;13.63;;;10.00;99.30;;;;;;5146112;27;20476;-49
2022/04/13 06:33:21;;;;;;;20.58;13.27;;;10.10;99.80;;;;;;5131230;27;20042;-47
2022/04/13 06:35:46;;;;;;;23.60;13.73;;;10.10;99.90;;;;;;5131793;27;20072;-50
2022/04/13 06:38:12;;;;;;;23.02;14.68;;;10.20;99.80;;;;;;5144896;27;20023;-58
2022/04/13 06:40:37;;;;;;;27.38;13.98;;;10.30;99.00;;;;;;5150111;27;20078;-59
2022/04/13 06:43:03;;;;;;;22.48;14.27;;;10.30;99.10;;;;;;5132893;27;20027;-59
2022/04/13 06:45:28;;;;;;;25.70;13.95;;;10.40;99.30;;;;;;5133495;27;20378;-59
2022/04/13 06:47:54;;;;;;;22.00;13.55;;;10.50;98.90;;;;;;5126997;27;20010;-59
2022/04/13 06:50:19;;;;;;;24.75;13.32;;;10.50;99.90;;;;;;5129621;27;20080;-59
2022/04/13 06:52:45;;;;;;;22.63;13.50;;;10.60;99.70;;;;;;5138396;27;20033;-59
2022/04/13 06:55:11;;;;;;;24.35;13.15;;;10.70;99.10;;;;;;5131459;27;20412;-59
2022/04/13 06:57:39;;;;;;;26.42;13.85;;;10.70;99.70;;;;;;5131204;27;20656;-58
2022/04/13 07:00:10;;;;;;;22.65;13.68;;;10.80;98.60;;;;;;5128119;27;20019;-59
2022/04/13 07:02:36;;;;;;;30.83;15.13;;;10.90;98.80;;;;;;5136834;27;20035;-47
2022/04/13 07:05:03;;;;;;;26.77;14.82;;;11.10;97.90;;;;;;5142997;27;20025;-48
2022/04/13 07:07:29;;;;;;;27.02;15.52;;;11.20;98.50;;;;;;5151526;27;20416;-48
2022/04/13 07:09:54;;;;;;;20.95;12.30;;;11.30;97.30;;;;;;5130063;27;20035;-48
2022/04/13 07:12:20;;;;;;;22.60;12.75;;;11.40;98.00;;;;;;5139911;27;20034;-47
2022/04/13 07:14:45;;;;;;;20.98;12.38;;;11.50;98.70;;;;;;5128951;27;20051;-47
2022/04/13 07:17:11;;;;;;;25.45;15.25;;;11.60;97.50;;;;;;5130564;27;20031;-47
2022/04/13 07:19:36;;;;;;;22.83;13.77;;;11.70;96.20;;;;;;5124165;27;20425;-47
2022/04/13 07:22:02;;;;;;;19.77;12.88;;;11.80;96.10;;;;;;5137936;27;20479;-46
2022/04/13 07:24:28;;;;;;;23.73;13.43;;;12.00;95.90;;;;;;5131743;27;20711;-47
2022/04/13 07:26:54;;;;;;;22.88;13.10;;;12.20;95.80;;;;;;5130085;27;20091;-48
2022/04/13 07:29:20;;;;;;;22.15;13.63;;;12.40;95.60;;;;;;5125028;27;20041;-48
2022/04/13 07:31:45;;;;;;;19.67;12.32;;;12.60;94.70;;;;;;5119375;27;20039;-48
2022/04/13 07:34:11;;;;;;;19.33;12.70;;;12.90;94.40;;;;;;5128603;27;20081;-47
2022/04/13 07:36:36;;;;;;;18.23;11.88;;;13.20;94.90;;;;;;5123557;27;20035;-49
2022/04/13 07:39:02;;;;;;;16.52;11.32;;;13.50;93.30;;;;;;5119314;27;20397;-50
2022/04/13 07:41:28;;;;;;;23.67;12.50;;;14.00;93.10;;;;;;5116190;27;20393;-49
2022/04/13 07:43:55;;;;;;;22.30;12.48;;;14.50;91.20;;;;;;5142281;27;20371;-48
2022/04/13 07:46:21;;;;;;;16.20;11.85;;;14.80;91.70;;;;;;5139735;27;20023;-47
2022/04/13 07:48:47;;;;;;;15.73;10.52;;;15.30;90.00;;;;;;5141886;27;20030;-49
2022/04/13 07:51:12;;;;;;;18.52;12.02;;;15.60;89.40;;;;;;5133430;27;20024;-46
2022/04/13 07:53:38;;;;;;;20.20;11.88;;;16.00;85.10;;;;;;5139329;27;20130;-46
2022/04/13 07:56:04;;;;;;;17.48;11.38;;;16.20;83.70;;;;;;5136498;27;20034;-47
2022/04/13 07:58:29;;;;;;;15.55;10.95;;;16.40;81.00;;;;;;5148797;27;20051;-48
2022/04/13 08:00:54;;;;;;;15.52;11.27;;;16.60;80.90;;;;;;5149625;27;20041;-50
2022/04/13 08:03:20;;;;;;;14.63;10.32;;;16.70;81.30;;;;;;5150284;27;20128;-46
2022/04/13 08:05:46;;;;;;;18.95;11.55;;;17.20;77.80;;;;;;5150147;27;20031;-50
2022/04/13 08:08:11;;;;;;;15.52;9.70;;;17.50;76.50;;;;;;5143749;27;20103;-50
2022/04/13 08:10:36;;;;;;;14.73;10.75;;;17.70;75.60;;;;;;5135217;27;20469;-47
2022/04/13 08:13:02;;;;;;;14.25;9.52;;;17.90;74.80;;;;;;5109155;28;20020;-47
2022/04/13 08:15:27;;;;;;;17.17;10.80;;;18.10;74.10;;;;;;5108949;28;20046;-51
2022/04/13 08:17:53;;;;;;;16.42;10.57;;;18.30;72.90;;;;;;5109082;28;20031;-50
2022/04/13 08:20:19;;;;;;;12.80;9.50;;;18.30;71.90;;;;;;5116272;27;20041;-48
2022/04/13 08:22:46;;;;;;;15.32;9.63;;;18.40;73.70;;;;;;5125961;27;20113;-48
2022/04/13 08:25:12;;;;;;;15.18;10.60;;;18.60;72.60;;;;;;5133642;27;20106;-49
2022/04/13 08:27:38;;;;;;;14.68;9.15;;;19.10;69.60;;;;;;5129507;27;20029;-48
2022/04/13 08:30:04;;;;;;;14.70;10.18;;;19.30;69.20;;;;;;5121715;27;20626;-49
2022/04/13 08:32:30;;;;;;;15.95;9.57;;;19.80;68.40;;;;;;5129977;27;20022;-48
2022/04/13 08:34:55;;;;;;;14.98;9.85;;;20.30;67.60;;;;;;5133289;27;20107;-48
2022/04/13 08:37:22;;;;;;;13.70;9.60;;;21.00;66.70;;;;;;5109098;28;20055;-48
2022/04/13 08:39:48;;;;;;;13.25;8.90;;;21.70;62.60;;;;;;5108251;28;20443;-49
2022/04/13 08:42:31;;;;;;;12.05;8.15;;;21.70;62.50;;;;;;5115397;27;20051;-49
2022/04/13 08:45:02;;;;;;;13.93;10.50;;;21.70;62.30;;;;;;5131028;27;20387;-48
2022/04/13 08:47:29;;;;;;;12.95;9.18;;;21.60;61.10;;;;;;5148076;27;20496;-47
2022/04/13 08:49:56;;;;;;;13.00;9.25;;;21.30;62.30;;;;;;5147736;27;20107;-48
2022/04/13 08:52:29;;;;;;;12.73;8.32;;;21.10;62.50;;;;;;5129070;27;20033;-46
2022/04/13 08:55:11;;;;;;;13.00;8.93;;;21.10;62.80;;;;;;5129713;27;20015;-46
2022/04/13 08:57:46;;;;;;;17.33;10.10;;;21.20;63.60;;;;;;5149282;27;20373;-47
2022/04/13 09:00:22;;;;;;;15.02;9.55;;;21.30;61.60;;;;;;5118784;27;20092;-48
2022/04/13 09:02:50;;;;;;;13.43;9.23;;;21.00;62.10;;;;;;5133636;27;20239;-45
2022/04/13 09:05:25;;;;;;;11.65;9.05;;;21.10;62.20;;;;;;5133654;27;20054;-46
2022/04/13 09:08:07;;;;;;;10.02;7.25;;;22.00;61.60;;;;;;5142318;27;20022;-48
2022/04/13 09:10:33;;;;;;;10.27;7.63;;;22.40;59.50;;;;;;5144024;27;20105;-49
2022/04/13 09:12:59;;;;;;;10.75;8.18;;;22.60;59.70;;;;;;5143037;27;20043;-47
2022/04/13 09:15:25;;;;;;;11.15;7.43;;;23.10;59.50;;;;;;5143629;27;20070;-46
2022/04/13 09:17:50;;;;;;;9.70;7.32;;;23.90;59.60;;;;;;5142788;27;20026;-49
2022/04/13 09:20:16;;;;;;;12.10;8.98;;;24.50;58.70;;;;;;5130709;27;20031;-47
2022/04/13 09:22:43;;;;;;;12.85;8.43;;;25.30;54.80;;;;;;5129300;27;20683;-47
2022/04/13 09:25:10;;;;;;;10.38;6.88;;;26.10;52.60;;;;;;5114001;27;20063;-46
2022/04/13 09:27:39;;;;;;;8.77;6.88;;;26.80;52.40;;;;;;5129013;27;20076;-57
2022/04/13 09:30:06;;;;;;;10.53;8.43;;;27.30;51.90;;;;;;5141133;27;20049;-57
2022/04/13 09:32:32;;;;;;;9.35;7.13;;;27.80;51.50;;;;;;5128807;27;20520;-57
2022/04/13 09:34:59;;;;;;;10.70;8.32;;;28.10;48.10;;;;;;5131485;27;20030;-57
2022/04/13 09:37:26;;;;;;;7.22;6.45;;;28.30;46.70;;;;;;5126867;27;20020;-58
2022/04/13 09:39:52;;;;;;;8.68;6.38;;;28.90;47.00;;;;;;5117080;27;20085;-58
2022/04/13 09:42:18;;;;;;;6.15;5.57;;;29.30;46.50;;;;;;5132916;27;20222;-58
2022/04/13 09:44:55;;;;;;;8.32;5.93;;;29.50;44.90;;;;;;5123836;27;20055;-58
2022/04/13 09:47:20;;;;;;;8.45;5.57;;;29.20;45.80;;;;;;5122280;27;20066;-58
2022/04/13 09:49:53;;;;;;;10.02;5.80;;;29.20;45.20;;;;;;5120165;27;20429;-58
2022/04/13 09:52:45;;;;;;;9.00;6.15;;;29.30;44.80;;;;;;5123005;27;20019;-58
2022/04/13 09:55:11;;;;;;;6.88;5.45;;;29.50;44.70;;;;;;5121406;27;20035;-58
2022/04/13 09:57:37;;;;;;;11.18;6.25;;;29.70;44.40;;;;;;5118261;27;20047;-59
2022/04/13 10:00:06;;;;;;;10.38;6.53;;;30.30;42.40;;;;;;5116519;27;20264;-58
2022/04/13 10:02:39;;;;;;;7.28;6.45;;;30.50;42.00;;;;;;5121640;27;20368;-58
2022/04/13 10:05:07;;;;;;;9.98;7.18;;;30.80;42.80;;;;;;5125707;27;20027;-58
2022/04/13 10:07:33;;;;;;;9.85;5.90;;;31.00;41.90;;;;;;5123657;27;20024;-58
2022/04/13 10:09:59;;;;;;;7.97;4.95;;;31.50;41.50;;;;;;5124363;27;20031;-58
2022/04/13 10:12:25;;;;;;;7.68;5.68;;;31.50;41.40;;;;;;5120402;27;20381;-58
2022/04/13 10:14:50;;;;;;;6.40;5.30;;;31.70;38.30;;;;;;5120138;27;20476;-58
2022/04/13 10:17:16;;;;;;;7.85;4.43;;;31.20;39.20;;;;;;5117322;27;20022;-58
2022/04/13 10:19:50;;;;;;;5.50;4.50;;;31.60;39.10;;;;;;5122849;27;20019;-58
2022/04/13 10:22:16;;;;;;;5.13;4.32;;;31.80;37.90;;;;;;5120428;27;20031;-58
2022/04/13 10:24:42;;;;;;;7.57;4.30;;;31.80;38.70;;;;;;5127975;27;20034;-50
2022/04/13 10:27:12;;;;;;;8.73;4.20;;;31.60;38.40;;;;;;5124994;27;20492;-50
2022/04/13 10:29:39;;;;;;;7.57;4.72;;;31.60;39.70;;;;;;5120559;27;20030;-51
2022/04/13 10:32:15;;;;;;;6.10;4.55;;;31.40;39.20;;;;;;5119097;27;20028;-50
2022/04/13 10:34:44;;;;;;;7.13;5.07;;;31.60;39.90;;;;;;5120908;27;20503;-51
2022/04/13 10:37:12;;;;;;;10.27;5.65;;;31.50;38.30;;;;;;5125115;27;20081;-51
2022/04/13 10:39:37;;;;;;;5.68;5.07;;;31.80;38.40;;;;;;5120257;27;20080;-51
2022/04/13 10:42:23;;;;;;;11.63;5.97;;;31.70;39.90;;;;;;5117608;27;20031;-49
2022/04/13 10:44:52;;;;;;;7.78;5.60;;;31.60;38.40;;;;;;5093429;28;20081;-47
2022/04/13 10:47:19;;;;;;;6.33;5.43;;;31.90;38.20;;;;;;5077478;28;20032;-51
2022/04/13 10:49:57;;;;;;;6.43;5.03;;;31.70;37.30;;;;;;5112046;27;20039;-50
2022/04/13 10:52:54;;;;;;;8.48;5.25;;;31.60;38.90;;;;;;5123123;27;20027;-50
2022/04/13 10:55:21;;;;;;;8.70;5.30;;;31.40;39.10;;;;;;5123874;27;20023;-51
2022/04/13 10:57:52;;;;;;;8.90;4.90;;;31.30;39.30;;;;;;5124273;27;20075;-51
2022/04/13 11:00:19;;;;;;;7.28;4.85;;;31.40;40.50;;;;;;5123986;27;20106;-50
2022/04/13 11:02:57;;;;;;;9.50;6.05;;;30.70;40.00;;;;;;5119775;27;20027;-48
2022/04/13 11:05:25;;;;;;;7.90;5.32;;;30.90;39.20;;;;;;5124679;27;20489;-50
2022/04/13 11:08:13;;;;;;;5.85;4.55;;;31.10;38.90;;;;;;5123786;27;20016;-49
2022/04/13 11:10:39;;;;;;;8.52;5.70;;;31.60;39.30;;;;;;5119701;27;20204;-51
2022/04/13 11:13:05;;;;;;;7.68;5.18;;;31.70;40.20;;;;;;5118008;27;20110;-51
2022/04/13 11:15:48;;;;;;;8.40;5.70;;;31.40;39.20;;;;;;5121081;27;20098;-50
2022/04/13 11:18:20;;;;;;;7.93;5.32;;;31.60;38.80;;;;;;5121796;27;20023;-50
2022/04/13 11:21:08;;;;;;;7.05;4.70;;;31.90;39.60;;;;;;5122075;27;20023;-48
2022/04/13 11:24:06;;;;;;;5.78;4.32;;;32.30;38.30;;;;;;5126998;27;20015;-51
2022/04/13 11:26:35;;;;;;;7.38;4.82;;;32.40;39.70;;;;;;5086670;27;20032;-50
2022/04/13 11:29:21;;;;;;;7.90;5.53;;;32.00;39.10;;;;;;5119317;27;20011;-50
2022/04/13 11:32:01;;;;;;;7.05;5.18;;;31.80;39.90;;;;;;5124734;27;20391;-50
2022/04/13 11:34:27;;;;;;;9.82;5.32;;;31.20;40.30;;;;;;5123498;27;20035;-49
2022/04/13 11:36:58;;;;;;;10.45;5.70;;;31.00;40.20;;;;;;5126565;27;20398;-51
2022/04/13 11:39:43;;;;;;;13.55;7.05;;;31.20;37.60;;;;;;5119653;27;20350;-47
2022/04/13 11:42:17;;;;;;;13.07;5.50;;;30.40;37.60;;;;;;5115850;27;20515;-51
2022/04/13 11:44:49;;;;;;;10.32;5.78;;;29.60;39.60;;;;;;5126253;27;20023;-49
2022/04/13 11:47:16;;;;;;;8.85;5.85;;;29.90;40.40;;;;;;5117154;27;20026;-51
2022/04/13 11:50:00;;;;;;;9.88;5.75;;;30.40;40.00;;;;;;5117696;27;20063;-50
2022/04/13 11:52:48;;;;;;;7.38;4.93;;;30.60;39.40;;;;;;5117228;27;20054;-52
2022/04/13 11:55:39;;;;;;;7.95;5.00;;;30.50;39.20;;;;;;5114081;27;20078;-51
2022/04/13 11:58:04;;;;;;;7.78;5.95;;;30.50;41.00;;;;;;5117120;27;20019;-50
2022/04/13 12:00:52;;;;;;;8.80;5.55;;;30.70;40.80;;;;;;5121290;27;20023;-50
2022/04/13 12:03:22;;;;;;;5.43;4.80;;;30.80;39.30;;;;;;5119377;27;20026;-51
2022/04/13 12:05:50;;;;;;;8.23;5.10;;;30.70;41.10;;;;;;5122877;27;20485;-51
2022/04/13 12:08:19;;;;;;;7.28;4.70;;;30.70;38.90;;;;;;5118572;27;20030;-50
2022/04/13 12:10:47;;;;;;;10.57;5.55;;;30.60;38.50;;;;;;5126681;27;20020;-49
2022/04/13 12:13:13;;;;;;;10.70;5.65;;;30.30;41.20;;;;;;5118627;27;20027;-46
2022/04/13 12:15:46;;;;;;;9.80;6.25;;;29.60;41.50;;;;;;5118644;27;20035;-50
2022/04/13 12:18:11;;;;;;;9.00;5.60;;;28.80;39.60;;;;;;5122188;27;20749;-47
2022/04/13 12:20:37;;;;;;;16.00;7.50;;;28.90;44.20;;;;;;5118220;27;20039;-48
2022/04/13 12:23:17;;;;;;;9.68;6.45;;;28.80;42.50;;;;;;5124791;27;20017;-47
2022/04/13 12:25:43;;;;;;;10.70;6.40;;;28.60;43.40;;;;;;5119603;27;20024;-48
2022/04/13 12:28:09;;;;;;;11.05;6.63;;;28.50;43.40;;;;;;5117532;27;20269;-48
2022/04/13 12:30:35;;;;;;;9.57;6.43;;;28.50;45.10;;;;;;5114555;27;20038;-48
2022/04/13 12:33:12;;;;;;;13.82;7.00;;;28.00;43.60;;;;;;5113422;27;20106;-49
2022/04/13 12:35:59;;;;;;;11.13;6.75;;;28.00;43.90;;;;;;5118891;27;20381;-49
2022/04/13 12:38:29;;;;;;;11.98;6.53;;;27.50;41.90;;;;;;5125779;27;20092;-49
2022/04/13 12:41:00;;;;;;;12.25;6.65;;;27.60;43.40;;;;;;5111557;28;20101;-48